Capitol Logistics 426


KTUL
Tulsa International Airport
Tulsa, Oklahoma, US
KELP
El Paso International Airport
El Paso, Texas, US

Activity Log

Date Flight Route Aircraft Duration
12/15/2019 CPX426 TUL J78 IRW J74 TXO CME SAMMR3 B738 2h 20m
08/26/2019 CPX426 TUL J78 IRW J74 TXO CME SAMMR3 B752 1h 51m
01/29/2019 CPX426 TUL J78 IRW J74 TXO CME SAMMR3 B752 1h 44m

Route Details

Aircraft Information
Primary: Boeing 757-200SF
Backup: Boeing 737-800BCF
Route Data
Distance: 585nm
Sched. Duration: 1h 19m
Avg. Duration: 1h 72m (+52m)
Times Flown: 3
Recm'd Route: TUL J78 IRW J74 TXO CME SAMMR3
Planned Altitude: 36,000ft
Origin Wx: KTUL 221953Z 19019G29KT 10SM FEW050 30/17 A2983 RMK AO2 PK WND 19035/1942 SLP094 T03000172
Dest. Wx: KELP 221951Z 26018G25KT 10SM CLR 30/00 A2993 RMK AO2 SLP064 T03000000
Notes:

Financial History
Total Freight: 132,315lbs
Average Load: 44,105lbs/flt
Fuel Used: 36,739lbs
Avg. Fuel Used: 12,246lbs/flt
Fuel Expense: $17,267
Avg. Fuel Expense: $5,756
Avg. Fuel Cost: $0.47/lbs
Total Gross Income: $173,569
Pilot Pay: $367
Total Expenses: $18,901
Total Revenue: $136,566
Average Revenue: $57,856.41